createdAt,value
2018-07-30T00:01:56.161Z,24.90
2018-07-30T00:04:23.847Z,24.80
2018-07-30T00:09:19.095Z,24.50
2018-07-30T00:11:46.826Z,24.60
2018-07-30T00:14:14.565Z,24.80
2018-07-30T00:16:42.267Z,25.00
2018-07-30T00:21:37.559Z,24.80
2018-07-30T00:24:05.211Z,24.60
2018-07-30T00:26:32.886Z,24.60
2018-07-30T00:29:00.559Z,24.70
2018-07-30T00:31:28.259Z,24.60
2018-07-30T00:36:23.487Z,24.40
2018-07-30T00:38:51.168Z,24.30
2018-07-30T00:41:18.859Z,24.00
2018-07-30T00:43:46.575Z,24.10
2018-07-30T00:46:14.251Z,24.00
2018-07-30T00:48:41.926Z,24.00
2018-07-30T00:51:09.846Z,23.80
2018-07-30T00:53:37.572Z,24.20
2018-07-30T00:56:05.315Z,23.80
2018-07-30T00:58:33.077Z,23.90
2018-07-30T01:01:00.850Z,23.70
2018-07-30T01:03:28.551Z,23.60
2018-07-30T01:08:23.891Z,23.80
2018-07-30T01:10:51.643Z,23.80
2018-07-30T01:13:19.407Z,23.60
2018-07-30T01:18:14.704Z,23.80
2018-07-30T01:20:42.407Z,23.60
2018-07-30T01:23:10.258Z,23.60
2018-07-30T01:28:05.607Z,23.10
2018-07-30T01:30:33.332Z,23.30
2018-07-30T01:33:01.034Z,23.20
2018-07-30T01:35:28.762Z,23.00
2018-07-30T01:37:56.455Z,23.10
2018-07-30T01:40:24.227Z,23.10
2018-07-30T01:42:51.960Z,22.60
2018-07-30T01:47:47.311Z,22.40
2018-07-30T01:50:15.040Z,22.60
2018-07-30T01:52:42.783Z,22.60
2018-07-30T01:55:10.533Z,22.60
2018-07-30T01:57:38.264Z,22.40
2018-07-30T02:00:06.338Z,22.20
2018-07-30T02:02:39.690Z,22.20
2018-07-30T02:05:07.395Z,22.20
2018-07-30T02:07:35.101Z,22.00
2018-07-30T02:10:02.912Z,22.30
2018-07-30T02:12:30.666Z,22.20
2018-07-30T02:17:26.000Z,22.20
2018-07-30T02:22:21.323Z,22.30
2018-07-30T02:27:16.659Z,22.10
2018-07-30T02:32:12.020Z,22.00
2018-07-30T02:34:39.720Z,22.20
2018-07-30T02:37:07.575Z,22.30
2018-07-30T02:39:35.330Z,22.30
2018-07-30T02:42:03.124Z,22.50
2018-07-30T02:44:30.847Z,22.50
2018-07-30T02:46:58.611Z,22.30
2018-07-30T02:49:26.323Z,22.30
2018-07-30T02:54:21.655Z,22.50
2018-07-30T02:56:49.406Z,22.30
2018-07-30T02:59:17.171Z,22.60
2018-07-30T03:01:44.868Z,22.40
2018-07-30T03:04:12.615Z,22.20
2018-07-30T03:06:40.443Z,22.30
2018-07-30T03:09:09.683Z,22.10
2018-07-30T03:11:37.770Z,22.30
2018-07-30T03:14:05.632Z,21.80
2018-07-30T03:16:33.389Z,22.00
2018-07-30T03:19:01.120Z,22.10
2018-07-30T03:21:28.890Z,22.00
2018-07-30T03:23:56.915Z,22.10
2018-07-30T03:26:24.674Z,22.20
2018-07-30T03:28:52.956Z,22.00
2018-07-30T03:31:21.631Z,21.70
2018-07-30T03:33:49.414Z,22.00
2018-07-30T03:36:17.139Z,22.30
2018-07-30T03:38:45.048Z,21.80
2018-07-30T03:41:12.831Z,21.60
2018-07-30T03:43:40.862Z,21.40
2018-07-30T03:46:08.627Z,21.60
2018-07-30T03:48:36.347Z,21.40
2018-07-30T03:51:04.092Z,21.60
2018-07-30T03:53:31.818Z,21.60
2018-07-30T03:55:59.609Z,21.50
2018-07-30T03:58:27.352Z,21.50
2018-07-30T04:00:55.099Z,21.40
2018-07-30T04:03:22.786Z,21.50
2018-07-30T04:05:50.692Z,21.50
2018-07-30T04:08:18.391Z,21.50
2018-07-30T04:10:46.120Z,21.30
2018-07-30T04:13:13.832Z,21.20
2018-07-30T04:15:41.599Z,21.30
2018-07-30T04:18:09.367Z,21.40
2018-07-30T04:20:37.067Z,21.30
2018-07-30T04:23:04.790Z,21.30
2018-07-30T04:25:32.539Z,21.20
2018-07-30T04:28:00.259Z,21.40
2018-07-30T04:30:28.032Z,21.00
2018-07-30T04:32:55.737Z,21.10
2018-07-30T04:35:23.710Z,21.20
2018-07-30T04:37:51.628Z,21.30
2018-07-30T04:40:19.368Z,21.20
2018-07-30T04:42:47.071Z,21.30
2018-07-30T04:45:14.816Z,21.50
2018-07-30T04:47:42.550Z,21.70
2018-07-30T04:50:10.292Z,21.50
2018-07-30T04:52:38.017Z,21.60
2018-07-30T04:55:05.795Z,21.70
2018-07-30T04:57:33.549Z,21.90
2018-07-30T05:00:01.266Z,21.40
2018-07-30T05:02:29.025Z,21.90
2018-07-30T05:04:56.746Z,21.60
2018-07-30T05:07:24.495Z,21.70
2018-07-30T05:09:52.214Z,21.70
2018-07-30T05:12:19.951Z,21.90
2018-07-30T05:17:15.288Z,21.80
2018-07-30T05:19:43.032Z,22.00
2018-07-30T05:22:10.719Z,21.70
2018-07-30T05:24:38.438Z,21.70
2018-07-30T05:27:06.165Z,21.90
2018-07-30T05:29:34.000Z,21.70
2018-07-30T05:34:29.282Z,22.00
2018-07-30T05:36:57.636Z,21.90
2018-07-30T05:39:25.355Z,22.00
2018-07-30T05:46:48.424Z,22.00
2018-07-30T05:49:16.156Z,22.30
2018-07-30T05:51:43.851Z,22.10
2018-07-30T05:54:11.645Z,22.20
2018-07-30T05:56:39.995Z,22.20
2018-07-30T05:59:07.911Z,22.20
2018-07-30T06:01:35.639Z,22.20
2018-07-30T06:06:31.035Z,22.20
2018-07-30T06:08:58.744Z,22.40
2018-07-30T06:11:26.446Z,22.60
2018-07-30T06:13:54.199Z,23.10
2018-07-30T06:16:22.211Z,23.20
2018-07-30T06:18:49.959Z,22.80
2018-07-30T06:21:17.762Z,23.30
2018-07-30T06:26:13.123Z,23.60
2018-07-30T06:28:41.092Z,23.70
2018-07-30T06:31:08.889Z,24.20
2018-07-30T06:33:36.643Z,24.30
2018-07-30T06:36:04.445Z,24.50
2018-07-30T06:38:32.217Z,24.30
2018-07-30T06:40:59.970Z,25.00
2018-07-30T06:43:27.735Z,25.20
2018-07-30T06:45:55.482Z,25.20
2018-07-30T06:48:23.193Z,25.30
2018-07-30T06:50:50.997Z,25.30
2018-07-30T06:53:18.923Z,25.70
2018-07-30T06:55:46.724Z,26.10
2018-07-30T06:58:14.527Z,26.40
2018-07-30T07:00:42.307Z,26.30
2018-07-30T07:03:10.099Z,26.20
2018-07-30T07:05:38.488Z,26.20
2018-07-30T07:08:06.279Z,26.10
2018-07-30T07:10:34.036Z,26.70
2018-07-30T07:13:01.764Z,27.10
2018-07-30T07:22:52.148Z,26.80
2018-07-30T07:25:19.867Z,27.20
2018-07-30T07:30:15.187Z,27.80
2018-07-30T07:37:38.456Z,28.50
2018-07-30T07:40:06.963Z,28.10
2018-07-30T07:42:34.745Z,28.10
2018-07-30T07:45:02.562Z,28.70
2018-07-30T07:47:30.204Z,29.20
2018-07-30T07:49:58.011Z,28.70
2018-07-30T07:52:25.687Z,28.50
2018-07-30T07:54:53.363Z,28.10
2018-07-30T07:57:21.074Z,28.00
2018-07-30T07:59:48.786Z,28.80
2018-07-30T08:02:16.455Z,28.50
2018-07-30T08:04:44.169Z,28.70
2018-07-30T08:07:11.908Z,28.60
2018-07-30T08:09:39.616Z,29.10
2018-07-30T08:12:07.299Z,29.10
2018-07-30T08:14:35.082Z,28.90
2018-07-30T08:17:02.755Z,28.70
2018-07-30T08:19:30.523Z,29.10
2018-07-30T08:21:58.194Z,29.00
2018-07-30T08:24:25.879Z,29.80
2018-07-30T08:26:53.580Z,29.40
2018-07-30T08:29:21.252Z,29.60
2018-07-30T08:31:48.955Z,29.80
2018-07-30T08:34:16.719Z,29.80
2018-07-30T08:36:44.418Z,30.00
2018-07-30T08:39:12.219Z,30.40
2018-07-30T08:41:40.015Z,31.00
2018-07-30T08:44:07.998Z,31.20
2018-07-30T08:46:35.671Z,31.40
2018-07-30T08:49:03.400Z,30.80
2018-07-30T08:51:31.136Z,30.60
2018-07-30T08:53:58.875Z,30.50
2018-07-30T08:58:54.126Z,30.10
2018-07-30T09:01:21.827Z,30.30
2018-07-30T09:03:49.527Z,30.50
2018-07-30T09:06:17.223Z,29.60
2018-07-30T09:08:44.972Z,30.10
2018-07-30T09:11:12.665Z,30.20
2018-07-30T09:13:40.360Z,32.10
2018-07-30T09:16:08.077Z,33.60
2018-07-30T09:18:35.768Z,34.30
2018-07-30T09:21:03.471Z,34.80
2018-07-30T09:25:58.822Z,36.10
2018-07-30T09:28:26.523Z,34.40
2018-07-30T09:30:54.242Z,33.80
2018-07-30T09:33:21.963Z,35.40
2018-07-30T09:38:17.298Z,39.00
2018-07-30T09:43:12.772Z,39.70
2018-07-30T09:45:40.527Z,39.80
2018-07-30T09:48:08.251Z,39.40
2018-07-30T09:50:36.075Z,38.40
2018-07-30T09:55:31.387Z,37.50
2018-07-30T09:57:59.095Z,36.10
2018-07-30T10:00:32.437Z,35.40
2018-07-30T10:03:00.151Z,36.20
2018-07-30T10:05:28.007Z,37.10
2018-07-30T10:10:23.455Z,39.90
2018-07-30T10:12:51.130Z,41.00
2018-07-30T10:17:47.013Z,40.50
2018-07-30T10:20:14.711Z,39.40
2018-07-30T10:22:42.429Z,36.80
2018-07-30T10:25:10.165Z,38.00
2018-07-30T10:27:37.899Z,39.20
2018-07-30T10:30:05.999Z,38.00
2018-07-30T10:35:01.528Z,37.00
2018-07-30T10:37:29.255Z,37.40
2018-07-30T10:39:57.097Z,39.10
2018-07-30T10:42:24.789Z,40.20
2018-07-30T10:44:52.483Z,40.40
2018-07-30T10:47:20.251Z,38.80
2018-07-30T10:52:15.659Z,41.40
2018-07-30T10:54:43.385Z,41.30
2018-07-30T10:57:11.148Z,41.20
2018-07-30T10:59:38.892Z,41.70
2018-07-30T11:02:06.606Z,39.80
2018-07-30T11:04:38.506Z,40.60
2018-07-30T11:07:06.680Z,41.90
2018-07-30T11:09:34.506Z,41.20
2018-07-30T11:12:02.620Z,40.20
2018-07-30T11:14:30.320Z,39.20
2018-07-30T11:16:58.007Z,38.80
2018-07-30T11:19:25.759Z,39.80
2018-07-30T11:21:53.484Z,40.10
2018-07-30T11:24:21.274Z,39.70
2018-07-30T11:26:49.002Z,40.00
2018-07-30T11:29:16.707Z,39.40
2018-07-30T11:31:44.423Z,40.70
2018-07-30T11:34:12.151Z,42.40
2018-07-30T11:36:39.879Z,43.50
2018-07-30T11:39:09.158Z,43.50
2018-07-30T11:41:36.950Z,43.20
2018-07-30T11:44:04.738Z,43.20
2018-07-30T11:46:32.470Z,42.50
2018-07-30T11:49:00.265Z,42.30
2018-07-30T11:51:28.031Z,42.00
2018-07-30T11:53:55.811Z,42.60
2018-07-30T11:56:23.530Z,40.70
2018-07-30T11:58:51.359Z,39.30
2018-07-30T12:03:46.706Z,39.60
2018-07-30T12:06:14.425Z,39.80
2018-07-30T12:11:09.778Z,41.10
2018-07-30T12:13:37.619Z,42.30
2018-07-30T12:16:05.314Z,41.50
2018-07-30T12:18:33.023Z,40.40
2018-07-30T12:21:00.808Z,38.70
2018-07-30T12:28:23.748Z,36.20
2018-07-30T12:30:51.441Z,36.30
2018-07-30T12:33:19.170Z,35.20
2018-07-30T12:35:46.896Z,34.50
2018-07-30T12:38:14.646Z,34.40
2018-07-30T12:40:42.347Z,34.30
2018-07-30T12:43:10.108Z,34.90
2018-07-30T12:45:44.934Z,35.30
2018-07-30T12:48:12.918Z,35.70
2018-07-30T12:50:40.656Z,35.30
2018-07-30T12:55:36.507Z,34.90
2018-07-30T12:58:04.668Z,35.20
2018-07-30T13:05:27.699Z,37.20
2018-07-30T13:07:55.404Z,36.60
2018-07-30T13:12:50.779Z,35.80
2018-07-30T13:15:18.499Z,35.10
2018-07-30T13:20:14.188Z,36.00
2018-07-30T13:22:42.004Z,36.40
2018-07-30T13:27:37.457Z,35.80
2018-07-30T13:30:06.862Z,35.10
2018-07-30T13:32:34.680Z,34.60
2018-07-30T13:35:02.335Z,34.80
2018-07-30T13:37:30.224Z,34.90
2018-07-30T13:39:58.800Z,35.30
2018-07-30T13:42:26.579Z,34.80
2018-07-30T13:44:54.292Z,34.60
2018-07-30T13:47:21.991Z,34.10
2018-07-30T13:49:49.820Z,33.80
2018-07-30T13:52:17.728Z,33.80
2018-07-30T13:54:45.445Z,34.10
2018-07-30T13:57:13.237Z,34.20
2018-07-30T13:59:40.916Z,34.50
2018-07-30T14:02:08.672Z,34.20
2018-07-30T14:04:36.358Z,34.00
2018-07-30T14:09:31.707Z,33.30
2018-07-30T14:11:59.407Z,33.60
2018-07-30T14:14:27.123Z,33.40
2018-07-30T14:16:54.830Z,33.90
2018-07-30T14:19:22.583Z,33.80
2018-07-30T14:21:50.315Z,34.10
2018-07-30T14:24:18.105Z,34.30
2018-07-30T14:26:45.918Z,34.30
2018-07-30T14:29:13.726Z,34.70
2018-07-30T14:31:41.431Z,34.70
2018-07-30T14:34:09.203Z,34.90
2018-07-30T14:36:37.033Z,34.10
2018-07-30T14:39:07.132Z,34.70
2018-07-30T14:41:34.904Z,34.60
2018-07-30T14:44:02.752Z,34.10
2018-07-30T14:48:58.159Z,34.50
2018-07-30T14:53:53.458Z,34.60
2018-07-30T14:56:21.175Z,34.60
2018-07-30T14:58:48.927Z,34.70
2018-07-30T15:01:16.667Z,34.80
2018-07-30T15:03:44.463Z,35.00
2018-07-30T15:08:39.922Z,35.60
2018-07-30T15:11:07.747Z,35.00
2018-07-30T15:16:03.223Z,34.60
2018-07-30T15:18:31.007Z,34.40
2018-07-30T15:20:58.723Z,34.00
2018-07-30T15:23:27.234Z,33.50
2018-07-30T15:25:54.963Z,33.60
2018-07-30T15:28:22.750Z,33.60
2018-07-30T15:30:50.463Z,33.50
2018-07-30T15:33:18.215Z,34.00
2018-07-30T15:35:45.940Z,34.00
2018-07-30T15:38:13.660Z,34.50
2018-07-30T15:40:41.463Z,34.70
2018-07-30T15:45:36.739Z,34.70
2018-07-30T15:48:04.484Z,34.80
2018-07-30T15:50:32.167Z,35.30
2018-07-30T15:52:59.900Z,35.40
2018-07-30T15:55:27.677Z,34.80
2018-07-30T15:57:55.375Z,34.80
2018-07-30T16:02:50.720Z,34.50
2018-07-30T16:05:18.447Z,34.40
2018-07-30T16:12:42.748Z,34.30
2018-07-30T16:15:11.055Z,34.30
2018-07-30T16:20:07.462Z,34.20
2018-07-30T16:22:35.195Z,34.10
2018-07-30T16:25:03.012Z,34.30
2018-07-30T16:27:31.143Z,34.60
2018-07-30T16:29:58.887Z,34.30
2018-07-30T16:32:26.634Z,34.30
2018-07-30T16:39:49.822Z,34.10
2018-07-30T16:44:45.679Z,33.50
2018-07-30T16:47:13.505Z,33.50
2018-07-30T16:49:41.193Z,33.10
2018-07-30T16:54:36.600Z,33.20
2018-07-30T16:57:04.407Z,33.80
2018-07-30T16:59:32.237Z,33.30
2018-07-30T17:02:00.016Z,33.70
2018-07-30T17:04:27.760Z,33.40
2018-07-30T17:06:55.525Z,34.00
2018-07-30T17:09:23.243Z,33.80
2018-07-30T17:11:51.018Z,33.60
2018-07-30T17:14:19.199Z,33.90
2018-07-30T17:16:46.919Z,33.10
2018-07-30T17:19:14.766Z,33.30
2018-07-30T17:21:42.462Z,33.30
2018-07-30T17:24:10.235Z,33.20
2018-07-30T17:26:38.179Z,33.10
2018-07-30T17:29:05.936Z,33.20
2018-07-30T17:31:33.659Z,33.10
2018-07-30T17:34:02.309Z,33.20
2018-07-30T17:36:30.155Z,33.10
2018-07-30T17:41:25.569Z,32.80
2018-07-30T17:46:20.935Z,32.60
2018-07-30T17:48:48.670Z,32.70
2018-07-30T17:53:44.132Z,32.70
2018-07-30T17:56:11.854Z,32.60
2018-07-30T17:58:39.574Z,32.10
2018-07-30T18:01:07.455Z,32.40
2018-07-30T18:03:35.150Z,32.00
2018-07-30T18:06:03.351Z,32.20
2018-07-30T18:08:31.112Z,32.50
2018-07-30T18:10:58.875Z,32.20
2018-07-30T18:13:26.582Z,32.10
2018-07-30T18:15:54.279Z,31.90
2018-07-30T18:18:22.033Z,31.80
2018-07-30T18:20:49.797Z,31.90
2018-07-30T18:23:17.541Z,31.80
2018-07-30T18:25:45.267Z,32.00
2018-07-30T18:28:12.976Z,31.90
2018-07-30T18:30:40.699Z,31.70
2018-07-30T18:33:08.749Z,31.90
2018-07-30T18:35:36.488Z,31.60
2018-07-30T18:38:04.239Z,31.30
2018-07-30T18:40:31.992Z,31.40
2018-07-30T18:42:59.763Z,31.00
2018-07-30T18:45:28.003Z,31.40
2018-07-30T18:47:55.737Z,31.20
2018-07-30T18:50:23.450Z,30.90
2018-07-30T18:52:51.188Z,31.10
2018-07-30T18:55:18.887Z,30.40
2018-07-30T18:57:46.582Z,30.70
2018-07-30T19:00:14.314Z,30.60
2018-07-30T19:02:42.020Z,30.50
2018-07-30T19:05:09.755Z,30.50
2018-07-30T19:07:37.445Z,30.00
2018-07-30T19:10:05.919Z,30.30
2018-07-30T19:12:33.623Z,30.20
2018-07-30T19:15:01.302Z,30.20
2018-07-30T19:17:29.010Z,30.10
2018-07-30T19:19:56.755Z,29.90
2018-07-30T19:22:24.440Z,30.10
2018-07-30T19:24:52.123Z,30.00
2018-07-30T19:27:19.877Z,29.90
2018-07-30T19:29:47.555Z,29.90
2018-07-30T19:32:15.296Z,29.90
2018-07-30T19:34:42.963Z,29.70
2018-07-30T19:39:38.284Z,29.50
2018-07-30T19:42:06.062Z,29.50
2018-07-30T19:44:33.917Z,29.10
2018-07-30T19:47:01.596Z,29.20
2018-07-30T19:49:29.311Z,29.40
2018-07-30T19:51:57.126Z,29.30
2018-07-30T19:54:24.850Z,29.10
2018-07-30T19:56:52.633Z,29.10
2018-07-30T19:59:20.376Z,28.80
2018-07-30T20:01:48.063Z,29.00
2018-07-30T20:06:43.355Z,28.90
2018-07-30T20:09:12.095Z,28.60
2018-07-30T20:11:39.827Z,28.50
2018-07-30T20:14:07.581Z,28.60
2018-07-30T20:16:35.783Z,28.30
2018-07-30T20:19:03.557Z,28.10
2018-07-30T20:21:31.287Z,28.20
2018-07-30T20:23:59.286Z,27.90
2018-07-30T20:26:26.995Z,28.30
2018-07-30T20:28:54.696Z,28.00
2018-07-30T20:33:55.487Z,27.80
2018-07-30T20:36:23.519Z,27.90
2018-07-30T20:41:19.239Z,27.60
2018-07-30T20:43:47.011Z,27.60
2018-07-30T20:46:14.746Z,27.60
2018-07-30T20:48:42.481Z,27.60
2018-07-30T20:51:10.212Z,27.30
2018-07-30T21:01:00.867Z,27.40
2018-07-30T21:05:56.393Z,26.70
2018-07-30T21:08:24.176Z,26.80
2018-07-30T21:10:51.871Z,26.90
2018-07-30T21:13:19.566Z,26.80
2018-07-30T21:15:47.249Z,26.20
2018-07-30T21:18:14.955Z,26.50
2018-07-30T21:20:42.694Z,26.50
2018-07-30T21:23:10.419Z,26.50
2018-07-30T21:25:38.108Z,26.40
2018-07-30T21:30:33.405Z,26.30
2018-07-30T21:33:01.119Z,26.00
2018-07-30T21:35:28.848Z,26.30
2018-07-30T21:40:24.178Z,26.10
2018-07-30T21:42:51.906Z,26.00
2018-07-30T21:45:19.633Z,26.20
2018-07-30T21:47:47.315Z,26.10
2018-07-30T21:50:15.031Z,26.30
2018-07-30T21:55:10.339Z,25.70
2018-07-30T21:57:38.033Z,26.10
2018-07-30T22:00:07.942Z,26.20
2018-07-30T22:05:03.943Z,26.10
2018-07-30T22:07:31.645Z,25.90
2018-07-30T22:14:54.493Z,26.20
2018-07-30T22:17:22.163Z,26.30
2018-07-30T22:19:49.876Z,26.20
2018-07-30T22:22:17.563Z,26.40
2018-07-30T22:24:45.282Z,26.20
2018-07-30T22:29:40.576Z,26.40
2018-07-30T22:32:08.269Z,26.50
2018-07-30T22:34:36.019Z,26.30
2018-07-30T22:44:26.722Z,26.10
2018-07-30T22:46:54.407Z,25.70
2018-07-30T22:49:22.091Z,26.30
2018-07-30T22:51:49.786Z,26.00
2018-07-30T22:54:17.480Z,26.10
2018-07-30T22:56:45.167Z,26.10
2018-07-30T22:59:12.860Z,26.00
2018-07-30T23:04:08.106Z,25.70
2018-07-30T23:06:35.789Z,25.60
2018-07-30T23:09:04.927Z,25.70
2018-07-30T23:11:32.611Z,25.60
2018-07-30T23:14:00.283Z,25.60
2018-07-30T23:16:27.999Z,25.50
2018-07-30T23:18:55.681Z,25.50
2018-07-30T23:23:50.979Z,25.40
2018-07-30T23:26:18.676Z,25.60
2018-07-30T23:33:41.880Z,25.40
2018-07-30T23:36:09.571Z,25.50
2018-07-30T23:38:37.251Z,25.50
2018-07-30T23:41:05.270Z,25.30
2018-07-30T23:43:32.963Z,25.10
2018-07-30T23:46:00.661Z,25.20
2018-07-30T23:48:28.446Z,25.20
2018-07-30T23:50:56.130Z,25.10
2018-07-30T23:53:23.830Z,25.10
2018-07-30T23:55:51.542Z,25.50
2018-07-30T23:58:19.215Z,25.30
